Time;durP1;ratioP1;P1;durP2;ratioP2;P2;SDS_P1;SDS_P2;PMS_P1;PMS_P2;Temp;Humidity;BMP_temperature;BMP_pressure;BME280_temperature;BME280_humidity;BME280_pressure;Samples;Min_cycle;Max_cycle;Signal;HPM_P1;HPM_P2
2022/08/27 00:00:09;;;;;;;13.62;5.45;;;;;;;21.75;57.02;100429.23;1718314;81;20939;-79
2022/08/27 00:02:54;;;;;;;14.05;6.03;;;;;;;21.72;57.10;100425.48;1727879;81;20888;-79
2022/08/27 00:05:40;;;;;;;14.53;6.17;;;;;;;21.67;57.14;100431.04;1743592;80;20903;-79
2022/08/27 00:08:25;;;;;;;7.70;5.42;;;;;;;21.64;57.25;100426.45;1731730;81;20970;-79
2022/08/27 00:11:12;;;;;;;11.43;6.25;;;;;;;21.61;57.32;100424.86;1749092;80;21071;-79
2022/08/27 00:13:57;;;;;;;12.80;5.75;;;;;;;21.56;57.40;100419.05;1725531;81;21547;-79
2022/08/27 00:16:43;;;;;;;11.80;6.15;;;;;;;21.51;57.49;100417.66;1733244;80;21033;-79
2022/08/27 00:19:28;;;;;;;7.35;5.95;;;;;;;21.49;57.62;100417.75;1733462;80;22238;-79
2022/08/27 00:22:13;;;;;;;16.57;7.25;;;;;;;21.47;57.72;100416.53;1736876;81;21406;-79
2022/08/27 00:24:58;;;;;;;11.73;6.42;;;;;;;21.47;57.73;100422.27;1727036;80;21024;-79
2022/08/27 00:27:43;;;;;;;15.93;6.75;;;;;;;21.45;57.81;100418.42;1727995;80;21822;-79
2022/08/27 00:30:28;;;;;;;11.10;6.50;;;;;;;21.47;57.86;100423.58;1741438;80;20979;-79
2022/08/27 00:33:13;;;;;;;11.90;7.10;;;;;;;21.46;57.91;100424.05;1736514;80;21683;-79
2022/08/27 00:35:59;;;;;;;11.57;6.45;;;;;;;21.45;58.01;100426.31;1726543;80;21036;-79
2022/08/27 00:38:44;;;;;;;11.12;5.92;;;;;;;21.40;58.09;100431.02;1721052;81;21499;-80
2022/08/27 00:41:29;;;;;;;12.85;6.67;;;;;;;21.36;58.21;100428.21;1721111;81;21077;-79
2022/08/27 00:44:15;;;;;;;8.23;6.15;;;;;;;21.32;58.30;100431.13;1741758;80;21017;-79
2022/08/27 00:47:05;;;;;;;8.37;5.67;;;;;;;21.28;58.36;100430.52;1748826;80;21040;-79
2022/08/27 00:49:57;;;;;;;9.13;5.80;;;;;;;21.24;58.49;100430.80;1731933;80;20954;-79
2022/08/27 00:52:55;;;;;;;9.13;5.80;;;;;;;21.23;58.58;100433.06;1724288;80;20903;-79
2022/08/27 00:55:44;;;;;;;12.58;6.20;;;;;;;21.20;58.68;100430.59;1735014;80;22151;-79
2022/08/27 00:58:36;;;;;;;11.05;6.60;;;;;;;21.13;58.74;100424.40;1746096;79;21088;-79
2022/08/27 01:01:27;;;;;;;9.55;5.80;;;;;;;21.08;58.89;100425.62;1744679;80;21620;-79
2022/08/27 01:04:11;;;;;;;14.80;7.05;;;;;;;21.04;58.95;100428.08;1711109;80;20934;-79
2022/08/27 01:06:58;;;;;;;14.80;7.37;;;;;;;21.00;59.04;100423.95;1739754;80;21530;-79
2022/08/27 01:09:45;;;;;;;15.80;6.47;;;;;;;20.95;59.11;100426.02;1734780;80;25226;-79
2022/08/27 01:12:32;;;;;;;9.98;6.45;;;;;;;20.91;59.14;100421.41;1741530;80;20898;-79
2022/08/27 01:15:18;;;;;;;13.50;6.65;;;;;;;20.83;59.24;100421.88;1742606;80;20934;-79
2022/08/27 01:18:05;;;;;;;7.80;6.70;;;;;;;20.80;59.33;100423.86;1743518;80;28496;-79
2022/08/27 01:20:58;;;;;;;12.70;6.78;;;;;;;20.78;59.36;100424.45;1695829;82;20930;-79
2022/08/27 01:24:21;;;;;;;10.08;7.08;;;;;;;20.76;59.42;100427.17;1741941;80;21040;-79
2022/08/27 01:27:10;;;;;;;11.55;6.92;;;;;;;20.72;59.51;100424.83;1726313;81;21888;-79
2022/08/27 01:29:56;;;;;;;12.75;6.70;;;;;;;20.69;59.56;100425.86;1732165;81;21089;-79
2022/08/27 01:32:44;;;;;;;12.40;6.70;;;;;;;20.69;59.59;100423.70;1710359;81;21553;-79
2022/08/27 01:35:29;;;;;;;13.85;6.65;;;;;;;20.66;59.68;100427.83;1716627;81;22161;-79
2022/08/27 01:38:16;;;;;;;12.78;7.28;;;;;;;20.64;59.77;100430.55;1753185;80;21054;-79
2022/08/27 01:41:01;;;;;;;11.88;7.00;;;;;;;20.64;59.84;100420.50;1750361;80;21413;-79
2022/08/27 01:43:47;;;;;;;8.23;6.67;;;;;;;20.61;59.84;100429.88;1743006;79;20972;-79
2022/08/27 01:46:32;;;;;;;12.23;6.33;;;;;;;20.56;59.90;100428.00;1763340;80;21057;-79
2022/08/27 01:49:16;;;;;;;9.20;6.55;;;;;;;20.54;59.96;100432.50;1735657;80;21010;-79
2022/08/27 01:52:03;;;;;;;11.78;6.35;;;;;;;20.50;60.00;100429.22;1736974;80;21088;-79
2022/08/27 01:54:50;;;;;;;12.40;7.00;;;;;;;20.45;60.07;100432.12;1740379;80;21104;-79
2022/08/27 01:57:35;;;;;;;10.10;6.22;;;;;;;20.42;60.09;100432.77;1731222;80;21064;-79
2022/08/27 02:00:31;;;;;;;9.73;6.55;;;;;;;20.36;60.16;100424.75;1729594;80;21050;-79
2022/08/27 02:03:17;;;;;;;15.20;6.70;;;;;;;20.31;60.21;100428.59;1753374;80;21020;-79
2022/08/27 02:06:08;;;;;;;9.10;6.12;;;;;;;20.24;60.28;100422.88;1755591;80;21040;-79
2022/08/27 02:08:52;;;;;;;14.60;6.75;;;;;;;20.18;60.32;100415.83;1757636;80;20889;-79
2022/08/27 02:11:37;;;;;;;7.45;6.65;;;;;;;20.11;60.41;100416.66;1756381;80;20909;-79
2022/08/27 02:14:22;;;;;;;10.28;7.03;;;;;;;20.03;60.51;100411.86;1757790;80;20897;-79
2022/08/27 02:17:07;;;;;;;8.90;6.67;;;;;;;19.97;60.60;100412.20;1767514;80;20882;-79
2022/08/27 02:19:52;;;;;;;14.78;6.72;;;;;;;19.94;60.67;100416.79;1756413;80;20889;-79
2022/08/27 02:22:37;;;;;;;10.90;7.22;;;;;;;19.92;60.78;100414.25;1760015;80;21323;-79
2022/08/27 02:25:23;;;;;;;9.78;7.03;;;;;;;19.89;60.84;100409.65;1754786;80;21500;-79
2022/08/27 02:28:08;;;;;;;12.47;7.55;;;;;;;19.86;60.93;100401.95;1742799;80;20941;-79
2022/08/27 02:30:53;;;;;;;13.85;7.97;;;;;;;19.83;60.98;100406.91;1749464;80;20922;-79
2022/08/27 02:33:38;;;;;;;7.50;6.80;;;;;;;19.80;61.04;100405.77;1751814;80;20922;-79
2022/08/27 02:36:23;;;;;;;9.80;7.35;;;;;;;19.77;61.13;100405.48;1753623;80;20929;-79
2022/08/27 02:39:09;;;;;;;9.43;6.77;;;;;;;19.73;61.20;100404.00;1773858;79;20912;-79
2022/08/27 02:41:54;;;;;;;18.13;8.43;;;;;;;19.73;61.28;100403.16;1774874;79;21110;-79
2022/08/27 02:44:39;;;;;;;11.53;6.93;;;;;;;19.72;61.35;100409.34;1738181;80;21080;-79
2022/08/27 02:47:24;;;;;;;11.48;6.70;;;;;;;19.59;61.33;100384.73;1751237;80;21764;-79
2022/08/27 02:50:12;;;;;;;10.30;6.65;;;;;;;19.66;61.40;100403.13;1724510;80;21028;-79
2022/08/27 02:52:57;;;;;;;9.85;6.92;;;;;;;19.63;61.47;100397.58;1760178;80;21032;-79
2022/08/27 02:55:42;;;;;;;9.68;7.08;;;;;;;19.60;61.52;100390.36;1775603;78;21665;-79
2022/08/27 02:58:27;;;;;;;13.45;7.33;;;;;;;19.53;61.64;100394.26;1774643;79;21534;-79
2022/08/27 03:01:12;;;;;;;8.25;7.37;;;;;;;19.48;61.69;100395.33;1746297;80;21093;-79
2022/08/27 03:03:57;;;;;;;15.40;6.72;;;;;;;19.48;61.80;100397.95;1721910;81;22206;-79
2022/08/27 03:06:42;;;;;;;9.88;6.92;;;;;;;19.48;61.84;100401.04;1714055;81;20958;-79
2022/08/27 03:09:28;;;;;;;13.55;6.90;;;;;;;19.40;61.86;100411.11;1727886;81;21751;-79
2022/08/27 03:12:13;;;;;;;9.23;7.28;;;;;;;19.34;61.93;100397.03;1735893;80;21027;-79
2022/08/27 03:14:58;;;;;;;11.55;7.90;;;;;;;19.31;62.05;100416.39;1747667;80;20959;-79
2022/08/27 03:20:51;;;;;;;12.33;7.72;;;;;;;19.24;62.17;100405.02;1734451;81;21018;-79
2022/08/27 03:23:36;;;;;;;10.75;7.53;;;;;;;19.22;62.19;100399.05;1718730;81;21009;-79
2022/08/27 03:26:22;;;;;;;8.80;7.30;;;;;;;19.22;62.25;100404.29;1751034;80;21532;-80
2022/08/27 03:29:07;;;;;;;10.77;7.20;;;;;;;19.21;62.29;100394.27;1730423;81;21041;-79
2022/08/27 03:31:52;;;;;;;8.55;7.50;;;;;;;19.23;62.33;100391.56;1731206;81;20978;-80
2022/08/27 03:34:37;;;;;;;12.58;7.70;;;;;;;19.20;62.34;100396.51;1730410;81;21057;-79
2022/08/27 03:37:22;;;;;;;11.20;7.25;;;;;;;19.13;62.34;100386.83;1722329;81;21069;-79
2022/08/27 03:40:08;;;;;;;12.28;7.78;;;;;;;19.09;62.47;100398.41;1725286;81;21061;-79
2022/08/27 03:42:53;;;;;;;12.30;7.50;;;;;;;19.04;62.47;100396.50;1718138;81;21084;-79
2022/08/27 03:45:41;;;;;;;10.10;7.33;;;;;;;19.01;62.71;100394.52;1727971;81;21016;-79
2022/08/27 03:48:26;;;;;;;16.70;7.60;;;;;;;18.97;62.65;100392.52;1723616;81;21099;-79
2022/08/27 03:51:14;;;;;;;15.15;7.78;;;;;;;18.94;62.70;100394.45;1726496;81;21010;-79
2022/08/27 03:53:58;;;;;;;14.35;7.78;;;;;;;18.92;62.73;100397.63;1722571;81;21137;-79
2022/08/27 03:56:44;;;;;;;12.10;8.20;;;;;;;18.85;62.82;100404.50;1732483;81;20943;-79
2022/08/27 03:59:29;;;;;;;11.08;8.60;;;;;;;18.80;62.90;100406.52;1730229;81;21069;-79
2022/08/27 04:02:15;;;;;;;13.83;9.08;;;;;;;18.77;63.01;100409.30;1729214;82;21037;-79
2022/08/27 04:05:00;;;;;;;12.33;8.80;;;;;;;18.79;63.09;100413.16;1727139;82;21065;-79
2022/08/27 04:07:45;;;;;;;10.40;7.97;;;;;;;18.78;63.11;100409.69;1725540;82;21087;-79
2022/08/27 04:10:30;;;;;;;11.10;9.33;;;;;;;18.79;63.22;100411.38;1728533;82;21037;-79
2022/08/27 04:13:16;;;;;;;14.53;8.73;;;;;;;18.79;63.25;100407.45;1722495;82;21080;-79
2022/08/27 04:16:00;;;;;;;9.98;8.45;;;;;;;18.80;63.25;100409.61;1731154;82;21304;-79
2022/08/27 04:18:46;;;;;;;8.85;6.90;;;;;;;18.83;63.35;100412.06;1720069;82;20887;-79
2022/08/27 04:21:32;;;;;;;12.15;8.40;;;;;;;18.82;63.34;100416.92;1732819;82;21422;-79
2022/08/27 04:24:17;;;;;;;12.47;7.90;;;;;;;18.78;63.40;100416.70;1736771;82;20941;-79
2022/08/27 04:27:03;;;;;;;9.40;7.25;;;;;;;18.74;63.49;100417.33;1705841;82;20956;-79
2022/08/27 04:29:48;;;;;;;11.22;7.72;;;;;;;18.78;63.53;100425.87;1711569;81;20965;-79
2022/08/27 04:32:33;;;;;;;10.98;8.03;;;;;;;18.79;63.55;100423.17;1712438;81;20969;-79
2022/08/27 04:35:18;;;;;;;11.38;8.10;;;;;;;18.79;63.62;100423.63;1714729;82;21076;-79
2022/08/27 04:38:04;;;;;;;10.25;7.60;;;;;;;18.77;63.66;100424.17;1714715;82;21150;-79
2022/08/27 04:44:06;;;;;;;11.18;8.05;;;;;;;18.78;63.77;100420.16;1729119;82;21788;-78
2022/08/27 04:47:01;;;;;;;13.35;8.10;;;;;;;18.78;63.84;100417.55;1735364;82;21048;-78
2022/08/27 04:49:46;;;;;;;10.23;7.85;;;;;;;18.81;63.89;100424.39;1732585;82;21014;-78
2022/08/27 04:52:31;;;;;;;10.48;8.45;;;;;;;18.80;63.97;100417.00;1717827;83;21543;-78
2022/08/27 04:55:17;;;;;;;12.80;8.75;;;;;;;18.83;64.04;100423.85;1740825;82;20995;-78
2022/08/27 04:58:02;;;;;;;8.43;7.33;;;;;;;18.84;64.05;100431.62;1747069;82;21606;-78
2022/08/27 05:00:51;;;;;;;8.80;7.70;;;;;;;18.84;64.05;100426.85;1746032;82;21028;-78
2022/08/27 05:03:36;;;;;;;10.00;8.25;;;;;;;18.85;64.14;100428.55;1733678;80;21067;-78
2022/08/27 05:06:22;;;;;;;11.43;8.83;;;;;;;18.90;64.17;100432.23;1742001;80;20991;-78
2022/08/27 05:09:07;;;;;;;;;;;;;;;18.93;64.21;100431.61;1730236;80;21063;-78
2022/08/27 05:11:54;;;;;;;8.45;7.62;;;;;;;18.93;64.51;100425.05;1701951;83;20540;-78
2022/08/27 05:14:39;;;;;;;13.83;8.90;;;;;;;18.95;64.31;100426.28;1726571;82;21553;-78
2022/08/27 05:17:24;;;;;;;10.70;8.90;;;;;;;19.01;64.39;100418.09;1722896;82;20981;-78
2022/08/27 05:20:10;;;;;;;9.95;8.78;;;;;;;19.09;64.42;100427.23;1726213;82;21037;-78
2022/08/27 05:22:56;;;;;;;10.98;9.38;;;;;;;19.20;64.53;100424.03;1727047;82;21035;-78
2022/08/27 05:25:45;;;;;;;10.18;8.55;;;;;;;19.47;64.67;100418.55;1726948;82;21009;-78
2022/08/27 05:28:30;;;;;;;12.03;8.23;;;;;;;19.80;64.67;100419.73;1714946;82;21639;-78
2022/08/27 05:31:18;;;;;;;12.80;9.38;;;;;;;20.14;64.74;100422.58;1726578;82;21580;-78
2022/08/27 05:34:04;;;;;;;9.35;8.45;;;;;;;20.52;64.73;100423.87;1696758;82;21077;-78
2022/08/27 05:36:49;;;;;;;;;;;;;;;20.94;64.75;100424.33;1724172;82;21387;-78
2022/08/27 05:39:35;;;;;;;11.78;8.70;;;;;;;21.33;64.68;100425.77;1717715;81;20141;-78
2022/08/27 05:42:20;;;;;;;11.18;8.68;;;;;;;21.72;64.71;100423.69;1726745;81;21042;-79
2022/08/27 05:45:08;;;;;;;14.23;9.40;;;;;;;22.16;64.70;100423.02;1724059;82;21069;-79
2022/08/27 05:47:53;;;;;;;14.38;8.48;;;;;;;22.59;64.67;100416.97;1725718;82;20942;-79
2022/08/27 05:50:41;;;;;;;15.60;8.70;;;;;;;23.00;64.57;100418.88;1726616;82;20950;-79
2022/08/27 05:53:26;;;;;;;9.58;8.33;;;;;;;23.38;64.51;100418.78;1723116;82;21383;-79
2022/08/27 05:56:18;;;;;;;8.95;8.03;;;;;;;23.74;64.37;100424.50;1717918;82;20912;-79
2022/08/27 06:02:07;;;;;;;10.45;8.10;;;;;;;24.05;64.16;100416.91;1706142;81;20994;-79
2022/08/27 06:04:52;;;;;;;9.93;7.97;;;;;;;24.16;64.20;100417.42;1738078;82;20918;-79
2022/08/27 06:07:37;;;;;;;9.93;7.95;;;;;;;24.43;64.10;100414.03;1734869;82;20922;-79
2022/08/27 06:10:21;;;;;;;10.48;8.20;;;;;;;24.81;63.97;100418.12;1740530;81;20919;-79
2022/08/27 06:13:06;;;;;;;10.48;7.95;;;;;;;25.17;63.73;100415.22;1735049;80;20910;-79
2022/08/27 06:16:08;;;;;;;10.48;8.18;;;;;;;25.53;63.47;100419.81;1736881;82;20938;-79
2022/08/27 06:18:56;;;;;;;9.18;8.13;;;;;;;25.79;63.33;100417.23;1715861;82;20894;-77
2022/08/27 06:21:41;;;;;;;14.45;8.40;;;;;;;26.20;63.17;100424.83;1736809;82;20934;-72
2022/08/27 06:24:26;;;;;;;11.83;9.33;;;;;;;26.57;62.88;100422.06;1732430;82;20886;-72
2022/08/27 06:27:15;;;;;;;15.50;8.63;;;;;;;26.86;62.70;100420.04;1734128;82;20958;-72
2022/08/27 06:30:01;;;;;;;13.93;8.28;;;;;;;27.27;62.43;100420.38;1731575;82;20942;-73
2022/08/27 06:32:46;;;;;;;9.53;7.58;;;;;;;27.69;61.71;100421.02;1728537;80;20945;-73
2022/08/27 06:35:36;;;;;;;12.98;7.53;;;;;;;28.01;61.79;100422.91;1729601;81;20981;-73
2022/08/27 06:38:20;;;;;;;11.53;7.87;;;;;;;28.43;61.60;100424.38;1737852;81;20934;-76
2022/08/27 06:41:07;;;;;;;13.20;7.50;;;;;;;28.90;61.40;100425.21;1733310;82;20932;-77
2022/08/27 06:43:54;;;;;;;10.78;6.92;;;;;;;29.36;61.05;100431.39;1738467;81;21470;-72
2022/08/27 06:46:40;;;;;;;9.35;7.25;;;;;;;29.84;60.61;100433.22;1739417;80;20941;-73
2022/08/27 06:49:25;;;;;;;8.38;6.72;;;;;;;30.25;60.27;100433.06;1737575;82;20898;-73
2022/08/27 06:52:10;;;;;;;12.65;7.35;;;;;;;30.60;59.84;100430.82;1737549;81;21528;-73
2022/08/27 06:54:55;;;;;;;7.72;6.83;;;;;;;30.97;59.23;100428.31;1730574;80;21065;-73
2022/08/27 06:57:40;;;;;;;8.83;6.75;;;;;;;31.32;58.98;100429.94;1732994;80;21040;-73
2022/08/27 07:00:25;;;;;;;9.30;6.97;;;;;;;31.74;58.92;100425.02;1735792;81;21016;-73
2022/08/27 07:03:11;;;;;;;12.40;6.78;;;;;;;32.04;57.98;100425.70;1734356;80;21045;-73
2022/08/27 07:06:04;;;;;;;7.65;6.28;;;;;;;32.22;57.86;100426.89;1731313;80;21501;-73
2022/08/27 07:08:49;;;;;;;6.53;5.95;;;;;;;32.58;57.43;100436.67;1734003;80;20965;-73
2022/08/27 07:11:35;;;;;;;7.83;6.20;;;;;;;32.86;56.82;100431.23;1292922;80;10019272;-73
2022/08/27 07:14:19;;;;;;;7.57;6.13;;;;;;;33.21;55.93;100434.43;1573601;87;21155;-73
2022/08/27 07:17:07;;;;;;;14.05;6.80;;;;;;;33.50;55.34;100433.27;1604988;87;22265;-73
2022/08/27 07:19:52;;;;;;;9.90;6.30;;;;;;;33.64;54.63;100441.55;1603780;87;21130;-73
2022/08/27 07:22:43;;;;;;;12.27;6.57;;;;;;;33.84;54.58;100441.41;1609749;87;21075;-73
2022/08/27 07:25:30;;;;;;;11.75;6.30;;;;;;;33.86;54.02;100439.38;1572214;89;21607;-73
2022/08/27 07:28:14;;;;;;;7.97;6.00;;;;;;;33.69;53.34;100441.34;1602503;87;21077;-77
2022/08/27 07:30:59;;;;;;;8.70;5.97;;;;;;;33.77;52.93;100442.63;1572091;88;21027;-77
2022/08/27 07:33:45;;;;;;;7.90;6.47;;;;;;;33.92;52.34;100449.39;1573327;89;21037;-78
2022/08/27 07:36:33;;;;;;;9.23;6.12;;;;;;;33.98;51.80;100443.31;1577747;89;21531;-73
2022/08/27 07:39:17;;;;;;;9.85;6.25;;;;;;;33.95;51.33;100442.84;1584537;89;21166;-72
2022/08/27 07:45:09;;;;;;;13.70;5.62;;;;;;;33.70;50.49;100449.72;1570828;89;21091;-73
2022/08/27 07:47:54;;;;;;;7.67;6.55;;;;;;;33.55;50.08;100453.67;1602734;87;21443;-73
2022/08/27 07:50:39;;;;;;;9.80;6.17;;;;;;;33.46;49.56;100451.22;1569999;89;21558;-73
2022/08/27 07:53:25;;;;;;;6.75;5.87;;;;;;;33.41;49.32;100450.91;1580431;89;20955;-73
2022/08/27 07:56:09;;;;;;;8.23;6.28;;;;;;;33.42;48.95;100449.39;1594536;88;20989;-73
2022/08/27 07:58:55;;;;;;;8.13;6.25;;;;;;;33.50;48.44;100464.09;1598948;86;20922;-73
2022/08/27 08:01:41;;;;;;;11.80;6.78;;;;;;;33.63;48.16;100471.56;1602558;87;20939;-73
2022/08/27 08:04:26;;;;;;;7.70;6.72;;;;;;;33.81;47.66;100464.06;1626505;86;20933;-73
2022/08/27 08:07:11;;;;;;;8.63;6.80;;;;;;;33.89;47.66;100461.83;1621528;86;21425;-73
2022/08/27 08:09:58;;;;;;;10.88;5.67;;;;;;;33.84;47.00;100459.69;1647222;84;20934;-75
2022/08/27 08:12:43;;;;;;;12.30;5.85;;;;;;;33.89;46.93;100460.48;1612664;86;20932;-75
2022/08/27 08:15:28;;;;;;;14.33;5.75;;;;;;;34.00;46.70;100452.52;1617009;86;20984;-74
2022/08/27 08:18:14;;;;;;;15.10;6.58;;;;;;;34.08;46.23;100458.66;1606044;88;20977;-74
2022/08/27 08:21:07;;;;;;;9.73;6.00;;;;;;;34.10;45.93;100463.34;1616682;86;21509;-74
2022/08/27 08:23:52;;;;;;;11.90;6.67;;;;;;;34.11;45.71;100469.03;1615058;86;20989;-74
2022/08/27 08:26:37;;;;;;;13.53;5.80;;;;;;;34.13;45.30;100462.14;1620013;86;20981;-78
2022/08/27 08:29:21;;;;;;;11.50;7.00;;;;;;;33.94;45.03;100450.56;1618132;86;21474;-73
2022/08/27 08:32:07;;;;;;;13.40;6.37;;;;;;;34.04;44.85;100474.80;1618011;86;20930;-77
2022/08/27 08:34:52;;;;;;;9.45;6.28;;;;;;;34.08;44.57;100468.56;1618416;86;20981;-77
2022/08/27 08:37:37;;;;;;;9.15;6.42;;;;;;;34.13;44.50;100462.98;1677355;83;20936;-77
2022/08/27 08:40:33;;;;;;;11.43;6.12;;;;;;;34.20;44.22;100464.43;1682253;83;20917;-78
2022/08/27 08:43:32;;;;;;;7.90;6.05;;;;;;;33.95;44.06;100464.30;1676018;83;20917;-78
2022/08/27 08:46:22;;;;;;;11.33;6.17;;;;;;;33.54;43.75;100464.07;1675340;83;20917;-77
2022/08/27 08:49:39;;;;;;;15.45;6.35;;;;;;;33.13;43.42;100464.78;1618357;87;20999;-77
2022/08/27 08:52:53;;;;;;;11.10;5.87;;;;;;;32.63;43.04;100455.73;1610638;86;20996;-77
2022/08/27 08:55:58;;;;;;;11.05;5.85;;;;;;;32.10;42.99;100457.63;1614220;86;20957;-77
2022/08/27 08:58:57;;;;;;;11.05;6.47;;;;;;;31.76;42.78;100459.11;1619242;86;20964;-77
2022/08/27 09:01:44;;;;;;;11.28;6.25;;;;;;;31.46;42.61;100461.38;1621492;86;20976;-77
2022/08/27 09:04:29;;;;;;;10.13;7.10;;;;;;;31.20;42.49;100461.46;1618571;86;20944;-77
2022/08/27 09:07:22;;;;;;;15.58;6.72;;;;;;;30.99;42.28;100465.54;1621626;86;20962;-77
2022/08/27 09:10:28;;;;;;;13.62;5.72;;;;;;;30.79;42.23;100460.93;1619711;85;21406;-77
2022/08/27 09:13:21;;;;;;;10.35;5.70;;;;;;;30.57;42.06;100448.98;1619017;86;20964;-77
2022/08/27 09:16:07;;;;;;;15.88;5.87;;;;;;;30.43;42.09;100457.53;1617120;86;21345;-77
2022/08/27 09:18:52;;;;;;;11.40;6.17;;;;;;;30.28;42.02;100453.25;1618434;86;20954;-77
2022/08/27 09:21:51;;;;;;;9.73;6.70;;;;;;;30.18;41.94;100453.84;1599258;88;21000;-77
2022/08/27 09:24:44;;;;;;;19.67;6.50;;;;;;;30.08;41.86;100453.95;1617399;86;21363;-75
2022/08/27 09:27:31;;;;;;;13.45;6.37;;;;;;;29.90;41.73;100450.43;1618575;86;20981;-75
2022/08/27 09:30:27;;;;;;;9.18;5.75;;;;;;;29.77;41.80;100443.31;1623179;86;21466;-79
2022/08/27 09:33:12;;;;;;;;;;;;;;;29.68;41.75;100451.72;1630421;86;20973;-79
2022/08/27 09:36:02;;;;;;;13.78;5.40;;;;;;;29.55;41.45;100440.63;1624146;86;20143;-79
2022/08/27 09:38:56;;;;;;;18.45;5.97;;;;;;;29.48;41.70;100448.88;1615713;86;20976;-79
2022/08/27 09:41:48;;;;;;;13.72;6.12;;;;;;;29.46;41.65;100448.19;1628158;86;20989;-79
2022/08/27 09:44:46;;;;;;;13.58;5.00;;;;;;;29.43;41.67;100446.66;1642889;86;20945;-79
2022/08/27 09:47:41;;;;;;;18.57;5.03;;;;;;;29.38;41.47;100446.23;1648803;85;20941;-79
2022/08/27 09:50:31;;;;;;;13.68;5.97;;;;;;;29.31;41.48;100443.83;1630190;86;20940;-79
2022/08/27 09:53:28;;;;;;;11.22;5.22;;;;;;;29.31;41.58;100440.66;1654390;85;21747;-79
2022/08/27 09:56:42;;;;;;;11.93;5.03;;;;;;;29.33;41.56;100446.69;1621917;86;20974;-79
2022/08/27 09:59:35;;;;;;;12.78;5.75;;;;;;;29.33;41.46;100443.18;1638286;86;21525;-78
2022/08/27 10:02:24;;;;;;;17.37;6.05;;;;;;;29.34;41.49;100442.19;1636196;85;20946;-78
2022/08/27 10:05:16;;;;;;;14.73;5.45;;;;;;;29.33;41.41;100436.03;1657874;84;21586;-79
2022/08/27 10:08:12;;;;;;;17.00;5.83;;;;;;;29.31;41.28;100439.33;1628681;86;20937;-79
2022/08/27 10:11:00;;;;;;;;;;;;;;;29.28;41.14;100439.63;1686381;83;21012;-79
2022/08/27 10:14:14;;;;;;;12.47;5.95;;;;;;;29.28;41.24;100441.45;1692716;83;20152;-79
2022/08/27 10:17:31;;;;;;;7.33;5.58;;;;;;;29.29;41.35;100439.98;1695211;83;21055;-79
2022/08/27 10:20:36;;;;;;;12.63;5.45;;;;;;;29.30;41.36;100430.16;1690524;83;21079;-78
2022/08/27 10:23:47;;;;;;;7.72;5.20;;;;;;;29.31;41.32;100430.02;1683323;83;21118;-78
2022/08/27 10:26:55;;;;;;;7.90;5.40;;;;;;;29.35;41.40;100424.38;1611101;87;21727;-78
2022/08/27 10:29:46;;;;;;;7.00;5.28;;;;;;;29.38;41.29;100429.41;1697003;83;21056;-78
2022/08/27 10:32:51;;;;;;;7.85;5.05;;;;;;;29.40;41.21;100431.44;1678842;83;21079;-78
2022/08/27 10:36:01;;;;;;;8.88;5.35;;;;;;;29.41;41.04;100429.11;1672224;83;21136;-78
2022/08/27 10:39:15;;;;;;;7.80;5.22;;;;;;;29.40;41.07;100421.61;1683977;83;21054;-78
2022/08/27 10:42:15;;;;;;;11.55;5.80;;;;;;;29.39;41.04;100426.59;1692289;83;21096;-78
2022/08/27 10:45:29;;;;;;;5.45;4.95;;;;;;;29.40;40.63;100424.77;1673463;83;21057;-78
2022/08/27 10:48:31;;;;;;;11.12;5.00;;;;;;;29.40;40.81;100426.11;1692828;83;21024;-78
2022/08/27 10:51:28;;;;;;;8.75;5.22;;;;;;;29.38;40.42;100423.59;1693184;83;21039;-79
2022/08/27 10:54:33;;;;;;;9.73;4.55;;;;;;;29.40;40.63;100415.45;1707319;83;21038;-78
2022/08/27 10:57:24;;;;;;;6.75;5.12;;;;;;;29.44;40.63;100418.19;1688693;83;21259;-79
2022/08/27 11:00:19;;;;;;;7.60;5.12;;;;;;;29.48;40.61;100418.23;1701155;83;21055;-79
2022/08/27 11:03:12;;;;;;;7.58;5.47;;;;;;;29.50;40.59;100418.42;1693467;83;21096;-79
2022/08/27 11:06:01;;;;;;;12.28;4.83;;;;;;;29.53;40.20;100420.79;1690772;81;21666;-79
2022/08/27 11:08:54;;;;;;;7.58;5.03;;;;;;;29.54;40.46;100419.80;1688420;83;21038;-78
2022/08/27 11:11:50;;;;;;;5.67;4.28;;;;;;;29.58;40.54;100410.52;1699737;83;21634;-78
2022/08/27 11:14:40;;;;;;;9.10;5.28;;;;;;;29.63;40.42;100413.53;1688243;83;21119;-78
2022/08/27 11:17:41;;;;;;;5.78;4.40;;;;;;;29.70;40.25;100412.92;1697587;83;21083;-78
2022/08/27 11:20:40;;;;;;;6.72;4.60;;;;;;;29.72;40.11;100404.28;1697046;83;21099;-78
2022/08/27 11:23:57;;;;;;;7.45;4.35;;;;;;;29.74;40.07;100408.96;1681761;83;21070;-78
2022/08/27 11:26:46;;;;;;;14.13;4.97;;;;;;;29.74;39.86;100406.30;1689035;83;21075;-78
2022/08/27 11:29:51;;;;;;;16.32;4.60;;;;;;;29.73;39.69;100401.95;1685667;83;21099;-78
2022/08/27 11:32:48;;;;;;;15.28;4.67;;;;;;;29.74;39.61;100406.30;1688209;83;21618;-79
2022/08/27 11:35:44;;;;;;;9.93;4.30;;;;;;;29.77;39.56;100405.98;1688896;83;20978;-78
2022/08/27 11:38:49;;;;;;;5.55;4.22;;;;;;;29.81;39.49;100410.02;1676100;83;21081;-78
2022/08/27 11:42:24;;;;;;;11.50;4.17;;;;;;;29.85;39.54;100411.39;1685736;83;21066;-78
2022/08/27 11:45:23;;;;;;;6.50;4.65;;;;;;;29.89;39.23;100410.09;1680646;83;21040;-78
2022/08/27 11:48:26;;;;;;;7.55;4.62;;;;;;;29.88;38.98;100407.92;1681957;83;21559;-78
2022/08/27 11:51:15;;;;;;;8.55;4.47;;;;;;;29.88;38.97;100403.92;1682732;83;20956;-78
2022/08/27 11:54:08;;;;;;;4.90;4.50;;;;;;;29.88;38.85;100399.09;1680950;83;21059;-78
2022/08/27 11:56:54;;;;;;;8.83;4.00;;;;;;;29.87;38.67;100399.59;1676322;83;21003;-78
2022/08/27 11:59:39;;;;;;;8.53;4.20;;;;;;;29.86;38.69;100397.91;1680630;82;21099;-78
2022/08/27 12:02:28;;;;;;;5.72;4.35;;;;;;;29.88;38.65;100395.09;1680952;83;21079;-78
2022/08/27 12:05:24;;;;;;;7.25;4.45;;;;;;;29.91;38.32;100401.45;1672731;83;21531;-78
2022/08/27 12:08:26;;;;;;;8.55;4.55;;;;;;;29.94;38.20;100392.64;1658136;83;21016;-79
2022/08/27 12:11:29;;;;;;;5.15;4.10;;;;;;;29.96;38.29;100385.83;1673844;83;21099;-79
2022/08/27 12:14:25;;;;;;;7.20;4.28;;;;;;;30.00;38.26;100392.55;1662508;83;21123;-78
2022/08/27 12:17:39;;;;;;;4.95;4.45;;;;;;;30.04;38.28;100383.75;1687108;83;21405;-78
2022/08/27 12:20:45;;;;;;;9.78;4.47;;;;;;;30.07;38.24;100380.77;1674244;83;21625;-78
2022/08/27 12:24:09;;;;;;;8.50;4.40;;;;;;;30.10;38.23;100380.46;1673971;83;21094;-78
2022/08/27 12:26:58;;;;;;;6.92;4.67;;;;;;;30.13;38.25;100378.81;1588218;88;21112;-78
2022/08/27 12:30:05;;;;;;;10.05;4.55;;;;;;;30.17;38.22;100369.48;1581404;88;21124;-78
2022/08/27 12:32:53;;;;;;;8.85;4.75;;;;;;;30.18;37.98;100369.81;1592368;88;21152;-79
2022/08/27 12:35:48;;;;;;;7.65;4.30;;;;;;;30.17;37.91;100368.98;1586272;88;21258;-79
2022/08/27 12:38:44;;;;;;;5.90;4.45;;;;;;;30.20;37.85;100367.33;1566150;88;21124;-79
2022/08/27 12:41:38;;;;;;;7.03;4.62;;;;;;;30.21;37.83;100367.67;1593896;88;21108;-79
2022/08/27 12:44:28;;;;;;;6.45;4.17;;;;;;;30.24;37.73;100367.86;1592291;88;21713;-79
2022/08/27 12:47:15;;;;;;;7.78;4.67;;;;;;;30.24;37.73;100359.86;1587628;88;21153;-79
2022/08/27 12:50:01;;;;;;;10.48;4.37;;;;;;;30.23;37.62;100364.36;1580690;88;21551;-78
2022/08/27 12:52:57;;;;;;;8.20;4.45;;;;;;;30.26;37.67;100360.53;1585963;88;21107;-78
2022/08/27 12:56:00;;;;;;;7.97;4.37;;;;;;;30.27;37.53;100354.20;1579048;88;21158;-78
2022/08/27 12:59:11;;;;;;;5.70;4.15;;;;;;;30.27;37.55;100355.54;1588544;88;21629;-78
2022/08/27 13:02:27;;;;;;;9.08;4.50;;;;;;;30.24;37.36;100350.52;1576868;88;21216;-78
2022/08/27 13:05:14;;;;;;;5.90;4.17;;;;;;;30.21;37.12;100348.17;1674028;83;21794;-78
2022/08/27 13:07:59;;;;;;;4.60;4.00;;;;;;;30.20;37.19;100342.00;1664154;83;21108;-78
2022/08/27 13:10:45;;;;;;;5.40;4.80;;;;;;;30.22;37.22;100341.84;1683502;83;21082;-78
2022/08/27 13:13:30;;;;;;;6.67;4.42;;;;;;;30.26;37.15;100341.36;1682263;83;21584;-78
2022/08/27 13:16:18;;;;;;;6.92;5.12;;;;;;;30.27;37.16;100340.38;1685651;83;21107;-78
2022/08/27 13:19:05;;;;;;;5.58;4.40;;;;;;;30.27;37.15;100339.53;1693852;83;21528;-78